Forside
METAR-TAF:

METAR-TAF

Lufthavne :

Ames, Iowa, USA

Breddekreds: 41-59-26N, længdekreds: 093-37-08W, højde: 288 m

Aktuelle vejr

Denne rapport blev lavet for 1 time og 2 minutter siden, kl. 02:53 UTC
Vind 4 kt fra vestnordvest
Temperatur -3°C
Fugtighed 80%
Tryk 1020 hPa
Sigt: 16.1 km
Nogle få skyer i en højde af 8000 ft
Brudte skyer i en højde af 9500 ft

METAR: KAMW 280253Z AUTO 29004KT 10SM FEW080 BKN095 M03/M06 A3013 RMK AO2 SLP212 T10281056 58004

Tid: 21:55 (03:55 UTC)


TAF: fraværende

Vejrobservationer og prognoser fra mere end 4000 lufthavne (METAR og TAF).

De gule og røde prikker repræsenterer de meteorologiske stationer.

Flyt musen over at se navnet på stationen.

Så klik over at se vejr observationer og prognoser.

At skifte det kort: Klik på de grønne knapper med et sort kors for at zoome ind; på den grønne knap med en bindestreg for at zoome ud; eller på de grønne pile for tilstødende kort.


METAR-TAF: